Time;durP1;ratioP1;P1;durP2;ratioP2;P2;SDS_P1;SDS_P2;PMS_P1;PMS_P2;Temp;Humidity;BMP_temperature;BMP_pressure;BME280_temperature;BME280_humidity;BME280_pressure;Samples;Min_cycle;Max_cycle;Signal;HPM_P1;HPM_P2
2022/11/30 00:01:14;;;;;;;;;35.25;28.75;;;;;-146.44;100.00;58906.56;5016394;28;45507;-54
2022/11/30 00:03:40;;;;;;;;;31.75;25.25;;;;;-146.44;100.00;58906.56;5016488;28;45471;-51
2022/11/30 00:06:11;;;;;;;;;37.50;34.00;;;;;-146.44;100.00;58906.56;5015964;28;46059;-52
2022/11/30 00:08:37;;;;;;;;;39.00;31.25;;;;;-146.44;100.00;58906.56;5016387;28;45522;-51
2022/11/30 00:11:13;;;;;;;;;30.75;30.75;;;;;-146.44;100.00;58906.56;5016379;28;45486;-52
2022/11/30 00:13:39;;;;;;;;;34.50;32.75;;;;;-146.44;100.00;58906.56;5015920;28;45553;-52
2022/11/30 00:16:05;;;;;;;;;39.00;31.50;;;;;-146.44;100.00;58906.56;5015880;28;45453;-53
2022/11/30 00:18:31;;;;;;;;;27.25;25.75;;;;;-146.44;100.00;58906.56;5016045;28;45494;-52
2022/11/30 00:21:01;;;;;;;;;30.25;27.75;;;;;-146.44;100.00;58906.56;5015860;28;45527;-52
2022/11/30 00:23:33;;;;;;;;;27.50;25.75;;;;;-146.44;100.00;58906.56;5016902;28;45416;-56
2022/11/30 00:26:01;;;;;;;;;28.50;26.00;;;;;-146.44;100.00;58906.56;5015540;28;45458;-57
2022/11/30 00:28:26;;;;;;;;;31.75;30.50;;;;;-146.44;100.00;58906.56;5015867;28;45405;-53
2022/11/30 00:31:04;;;;;;;;;30.75;27.25;;;;;-146.44;100.00;58906.56;5016035;28;45513;-54
2022/11/30 00:33:35;;;;;;;;;31.00;27.25;;;;;-146.44;100.00;58906.56;5015816;28;45922;-53
2022/11/30 00:36:04;;;;;;;;;32.00;28.75;;;;;-146.44;100.00;58906.56;5015903;28;46015;-52
2022/11/30 00:38:31;;;;;;;;;32.00;32.00;;;;;-146.44;100.00;58906.56;5015679;28;45561;-50
2022/11/30 00:40:56;;;;;;;;;31.50;29.50;;;;;-146.44;100.00;58906.56;5014929;28;45513;-52
2022/11/30 00:43:21;;;;;;;;;35.25;31.50;;;;;-146.44;100.00;58906.56;5014142;28;45411;-48
2022/11/30 00:45:47;;;;;;;;;35.25;28.00;;;;;-146.44;100.00;58906.56;5014988;28;46080;-49
2022/11/30 00:48:12;;;;;;;;;29.25;28.50;;;;;-146.44;100.00;58906.56;5015564;28;45410;-53
2022/11/30 00:50:37;;;;;;;;;16.50;13.25;;;;;-146.44;100.00;58906.56;5015532;28;45427;-48
2022/11/30 00:53:03;;;;;;;;;27.00;26.50;;;;;-146.44;100.00;58906.56;5015872;28;45576;-53
2022/11/30 00:55:30;;;;;;;;;22.50;21.00;;;;;-146.44;100.00;58906.56;5015470;28;45512;-55
2022/11/30 00:57:55;;;;;;;;;31.00;30.50;;;;;-146.44;100.00;58906.56;5015603;28;46172;-50
2022/11/30 01:00:20;;;;;;;;;24.75;24.75;;;;;-146.44;100.00;58906.56;5014818;28;46858;-53
2022/11/30 01:02:46;;;;;;;;;28.25;24.25;;;;;-146.44;100.00;58906.56;5015235;28;45517;-54
2022/11/30 01:05:11;;;;;;;;;25.25;24.00;;;;;-146.44;100.00;58906.56;5015012;28;54533;-51
2022/11/30 01:07:36;;;;;;;;;31.50;26.50;;;;;-146.44;100.00;58906.56;5015056;28;45443;-50
2022/11/30 01:10:02;;;;;;;;;33.75;30.25;;;;;-146.44;100.00;58906.56;5015482;28;45410;-52
2022/11/30 01:12:28;;;;;;;;;27.75;26.50;;;;;-146.44;100.00;58906.56;5015321;28;45549;-51
2022/11/30 01:14:53;;;;;;;;;37.75;31.00;;;;;-146.44;100.00;58906.56;5015089;28;47690;-50
2022/11/30 01:17:18;;;;;;;;;35.75;31.75;;;;;-146.44;100.00;58906.56;5015361;28;45452;-54
2022/11/30 01:19:44;;;;;;;;;29.25;27.25;;;;;-146.44;100.00;58906.56;5015167;28;45539;-50
2022/11/30 01:22:09;;;;;;;;;29.67;26.00;;;;;-146.44;100.00;58906.56;5015304;28;45668;-49
2022/11/30 01:24:34;;;;;;;;;30.50;26.25;;;;;-146.44;100.00;58906.56;5015606;28;46111;-49
2022/11/30 01:26:59;;;;;;;;;26.33;24.67;;;;;-146.44;100.00;58906.56;5015231;28;45479;-50
2022/11/30 01:29:25;;;;;;;;;35.75;30.50;;;;;-146.44;100.00;58906.56;5015559;28;45434;-52
2022/11/30 01:31:50;;;;;;;;;26.00;25.00;;;;;-146.44;100.00;58906.56;5015370;28;45582;-51
2022/11/30 01:34:15;;;;;;;;;31.75;28.25;;;;;-146.44;100.00;58906.56;5014900;28;45547;-50
2022/11/30 01:36:42;;;;;;;;;29.67;27.00;;;;;-146.44;100.00;58906.56;5015001;28;45918;-53
2022/11/30 01:39:08;;;;;;;;;27.00;22.00;;;;;-146.44;100.00;58906.56;5015189;28;45510;-52
2022/11/30 01:41:34;;;;;;;;;27.75;25.75;;;;;-146.44;100.00;58906.56;5015054;28;45647;-50
2022/11/30 01:44:05;;;;;;;;;30.50;28.50;;;;;-146.44;100.00;58906.56;5015857;28;46197;-52
2022/11/30 01:47:00;;;;;;;;;28.67;28.00;;;;;-146.44;100.00;58906.56;5012612;28;45458;-48
2022/11/30 01:49:45;;;;;;;;;24.75;24.50;;;;;-146.44;100.00;58906.56;5011552;28;45568;-52
2022/11/30 01:52:21;;;;;;;;;28.25;26.50;;;;;-146.44;100.00;58906.56;5014877;28;45506;-54
2022/11/30 01:54:55;;;;;;;;;29.75;27.25;;;;;-146.44;100.00;58906.56;5014617;28;45607;-52
2022/11/30 01:57:27;;;;;;;;;25.50;24.75;;;;;-146.44;100.00;58906.56;5007348;28;45764;-50
2022/11/30 01:59:55;;;;;;;;;30.50;30.25;;;;;-146.44;100.00;58906.56;5020266;28;45499;-52
2022/11/30 02:02:29;;;;;;;;;31.50;29.25;;;;;-146.44;100.00;58906.56;5020144;28;45633;-51
2022/11/30 02:04:55;;;;;;;;;32.00;32.00;;;;;-146.44;100.00;58906.56;5014560;28;46244;-52
2022/11/30 02:07:20;;;;;;;;;27.50;27.50;;;;;-146.44;100.00;58906.56;5014482;28;45534;-54
2022/11/30 02:09:46;;;;;;;;;28.50;26.75;;;;;-146.44;100.00;58906.56;5014947;28;45518;-53
2022/11/30 02:12:26;;;;;;;;;32.75;31.25;;;;;-146.44;100.00;58906.56;5013334;28;49516;-50
2022/11/30 02:14:57;;;;;;;;;35.50;33.75;;;;;-146.44;100.00;58906.56;5021612;28;45479;-51
2022/11/30 02:17:40;;;;;;;;;27.25;25.25;;;;;-146.44;100.00;58906.56;5019173;28;45509;-52
2022/11/30 02:20:08;;;;;;;;;26.25;25.50;;;;;-146.44;100.00;58906.56;5014717;28;45525;-51
2022/11/30 02:22:53;;;;;;;;;30.00;29.25;;;;;-146.44;100.00;58906.56;5014315;28;45528;-53
2022/11/30 02:25:27;;;;;;;;;29.75;27.00;;;;;-146.44;100.00;58906.56;5014925;28;45417;-53
2022/11/30 02:28:37;;;;;;;;;20.33;20.33;;;;;-146.44;100.00;58906.56;5014295;28;45514;-50
2022/11/30 02:31:07;;;;;;;;;24.00;23.75;;;;;-146.44;100.00;58906.56;5014199;28;45467;-54
2022/11/30 02:33:34;;;;;;;;;26.75;24.75;;;;;-146.44;100.00;58906.56;5015419;28;45519;-51
2022/11/30 02:36:02;;;;;;;;;21.67;21.67;;;;;-146.44;100.00;58906.56;5014181;28;46074;-52
2022/11/30 02:38:28;;;;;;;;;25.00;21.33;;;;;-146.44;100.00;58906.56;5014286;28;45454;-52
2022/11/30 02:40:54;;;;;;;;;15.33;15.00;;;;;-146.44;100.00;58906.56;5014386;28;45540;-51
2022/11/30 02:43:23;;;;;;;;;22.67;22.33;;;;;-146.44;100.00;58906.56;5014326;28;45387;-51
2022/11/30 02:46:06;;;;;;;;;19.67;18.67;;;;;-146.44;100.00;58906.56;5020072;28;45467;-50
2022/11/30 02:48:42;;;;;;;;;21.00;19.67;;;;;-146.44;100.00;58906.56;5013918;28;45494;-53
2022/11/30 02:51:11;;;;;;;;;25.00;24.33;;;;;-146.44;100.00;58906.56;5014157;28;45576;-51
2022/11/30 02:53:37;;;;;;;;;22.33;17.67;;;;;-146.44;100.00;58906.56;5021366;28;46201;-52
2022/11/30 02:56:02;;;;;;;;;24.33;23.33;;;;;-146.44;100.00;58906.56;5013862;28;45507;-53
2022/11/30 02:58:28;;;;;;;;;18.67;18.00;;;;;-146.44;100.00;58906.56;5013883;28;45430;-52
2022/11/30 03:00:53;;;;;;;;;20.33;20.33;;;;;-146.44;100.00;58906.56;5013718;28;45590;-54
2022/11/30 03:03:18;;;;;;;;;19.33;18.00;;;;;-146.44;100.00;58906.56;5012873;28;46164;-54
2022/11/30 03:05:44;;;;;;;;;25.00;25.00;;;;;-146.44;100.00;58906.56;5013773;28;46074;-53
2022/11/30 03:08:09;;;;;;;;;21.33;20.67;;;;;-146.44;100.00;58906.56;5028299;28;45571;-53
2022/11/30 03:10:34;;;;;;;;;28.00;24.33;;;;;-146.44;100.00;58906.56;5013966;28;45427;-52
2022/11/30 03:13:00;;;;;;;;;21.67;20.67;;;;;-146.44;100.00;58906.56;5013613;28;45598;-52
2022/11/30 03:15:26;;;;;;;;;23.67;21.00;;;;;-146.44;100.00;58906.56;5013129;28;46456;-50
2022/11/30 03:17:51;;;;;;;;;24.67;18.67;;;;;-146.44;100.00;58906.56;5013832;28;45608;-53
2022/11/30 03:20:16;;;;;;;;;23.33;22.00;;;;;-146.44;100.00;58906.56;5013146;28;45439;-52
2022/11/30 03:22:42;;;;;;;;;17.33;15.67;;;;;-146.44;100.00;58906.56;5014472;28;45444;-50
2022/11/30 03:25:07;;;;;;;;;17.00;16.33;;;;;-146.44;100.00;58906.56;5017480;28;48064;-50
2022/11/30 03:27:33;;;;;;;;;23.00;22.67;;;;;-146.44;100.00;58906.56;5017189;28;45547;-55
2022/11/30 03:29:59;;;;;;;;;19.33;18.67;;;;;-146.44;100.00;58906.56;5032249;28;45498;-51
2022/11/30 03:32:24;;;;;;;;;20.67;20.67;;;;;-146.44;100.00;58906.56;5017088;28;45481;-51
2022/11/30 03:34:50;;;;;;;;;17.00;17.00;;;;;-146.44;100.00;58906.56;5017081;28;46121;-52
2022/11/30 03:37:15;;;;;;;;;22.33;19.00;;;;;-146.44;100.00;58906.56;5017118;28;45512;-51
2022/11/30 03:39:40;;;;;;;;;23.00;21.33;;;;;-146.44;100.00;58906.56;5017157;28;45625;-54
2022/11/30 03:42:05;;;;;;;;;19.33;19.33;;;;;-146.44;100.00;58906.56;5016914;28;45553;-54
2022/11/30 03:44:31;;;;;;;;;21.33;19.33;;;;;-146.44;100.00;58906.56;5016806;28;48152;-53
2022/11/30 03:46:56;;;;;;;;;21.67;21.33;;;;;-146.44;100.00;58906.56;5017142;28;45491;-53
2022/11/30 03:49:21;;;;;;;;;21.33;19.00;;;;;-146.44;100.00;58906.56;5016765;28;45538;-54
2022/11/30 03:51:47;;;;;;;;;15.33;13.67;;;;;-146.44;100.00;58906.56;5016732;28;48614;-50
2022/11/30 03:54:12;;;;;;;;;19.67;19.00;;;;;-146.44;100.00;58906.56;5016839;28;46107;-51
2022/11/30 03:56:37;;;;;;;;;20.67;19.00;;;;;-146.44;100.00;58906.56;5016791;28;45494;-51
2022/11/30 03:59:03;;;;;;;;;16.67;16.67;;;;;-146.44;100.00;58906.56;5017100;28;45419;-51
2022/11/30 04:01:28;;;;;;;;;18.67;16.67;;;;;-146.44;100.00;58906.56;5016620;28;45562;-51
2022/11/30 04:03:53;;;;;;;;;19.33;19.33;;;;;-146.44;100.00;58906.56;5016258;28;45497;-52
2022/11/30 04:06:20;;;;;;;;;24.33;22.00;;;;;-146.44;100.00;58906.56;5017720;28;45439;-53
2022/11/30 04:08:46;;;;;;;;;18.00;18.00;;;;;-146.44;100.00;58906.56;5016564;28;45525;-54
2022/11/30 04:11:11;;;;;;;;;15.67;13.33;;;;;-146.44;100.00;58906.56;5016544;28;45525;-50
2022/11/30 04:13:38;;;;;;;;;18.67;16.67;;;;;-146.44;100.00;58906.56;5016158;28;45517;-53
2022/11/30 04:16:04;;;;;;;;;17.33;14.67;;;;;-146.44;100.00;58906.56;5016540;28;45537;-53
2022/11/30 04:18:31;;;;;;;;;15.67;12.33;;;;;-146.44;100.00;58906.56;5016739;28;45503;-51
2022/11/30 04:20:57;;;;;;;;;11.33;9.00;;;;;-146.44;100.00;58906.56;5017517;28;45583;-51
2022/11/30 04:23:29;;;;;;;;;10.00;10.00;;;;;-146.44;100.00;58906.56;5016250;28;45510;-51
2022/11/30 04:25:56;;;;;;;;;9.67;9.67;;;;;-146.44;100.00;58906.56;5015866;28;45583;-52
2022/11/30 04:28:21;;;;;;;;;8.67;8.67;;;;;-146.44;100.00;58906.56;5016147;28;45420;-49
2022/11/30 04:30:46;;;;;;;;;11.00;10.00;;;;;-146.44;100.00;58906.56;5031385;28;45725;-48
2022/11/30 04:33:14;;;;;;;;;8.00;8.00;;;;;-146.44;100.00;58906.56;5015405;28;45976;-49
2022/11/30 04:35:46;;;;;;;;;10.00;8.00;;;;;-146.44;100.00;58906.56;5015208;28;45494;-50
2022/11/30 04:38:12;;;;;;;;;10.00;9.00;;;;;-146.44;100.00;58906.56;5016499;28;45406;-51
2022/11/30 04:40:41;;;;;;;;;8.67;8.67;;;;;-146.44;100.00;58906.56;5016283;28;45503;-49
2022/11/30 04:43:07;;;;;;;;;12.00;11.00;;;;;-146.44;100.00;58906.56;5015763;28;46047;-50
2022/11/30 04:45:32;;;;;;;;;8.33;8.33;;;;;-146.44;100.00;58906.56;5015911;28;45513;-53
2022/11/30 04:47:58;;;;;;;;;8.33;8.33;;;;;-146.44;100.00;58906.56;5016179;28;45458;-54
2022/11/30 04:50:23;;;;;;;;;9.33;8.67;;;;;-146.44;100.00;58906.56;5015415;28;49501;-50
2022/11/30 04:52:48;;;;;;;;;8.00;8.00;;;;;-146.44;100.00;58906.56;5015493;28;45454;-48
2022/11/30 04:55:18;;;;;;;;;9.67;9.67;;;;;-146.44;100.00;58906.56;5017006;28;45793;-53
2022/11/30 04:57:43;;;;;;;;;6.67;6.67;;;;;-146.44;100.00;58906.56;5016080;28;46097;-52
2022/11/30 05:00:09;;;;;;;;;6.67;6.00;;;;;-146.44;100.00;58906.56;5015642;28;45699;-52
2022/11/30 05:02:34;;;;;;;;;10.33;9.33;;;;;-146.44;100.00;58906.56;5015427;28;45573;-51
2022/11/30 05:05:00;;;;;;;;;8.00;8.00;;;;;-146.44;100.00;58906.56;5015123;28;48110;-50
2022/11/30 05:07:25;;;;;;;;;8.67;8.67;;;;;-146.44;100.00;58906.56;5015566;28;46117;-49
2022/11/30 05:09:50;;;;;;;;;6.67;6.67;;;;;-146.44;100.00;58906.56;5015764;28;45683;-52
2022/11/30 05:12:16;;;;;;;;;8.00;8.00;;;;;-146.44;100.00;58906.56;5015304;28;45540;-52
2022/11/30 05:14:41;;;;;;;;;8.00;8.00;;;;;-146.44;100.00;58906.56;5015411;28;46052;-52
2022/11/30 05:17:06;;;;;;;;;10.00;10.00;;;;;-146.44;100.00;58906.56;5015362;28;45570;-52
2022/11/30 05:19:32;;;;;;;;;9.33;9.00;;;;;-146.44;100.00;58906.56;5015703;28;45553;-52
2022/11/30 05:21:57;;;;;;;;;11.67;11.67;;;;;-146.44;100.00;58906.56;5015312;28;46220;-51
2022/11/30 05:24:22;;;;;;;;;15.00;13.00;;;;;-146.44;100.00;58906.56;5017517;28;57226;-50
2022/11/30 05:26:48;;;;;;;;;10.33;9.00;;;;;-146.44;100.00;58906.56;5023932;28;45558;-51
2022/11/30 05:29:13;;;;;;;;;12.33;10.67;;;;;-146.44;100.00;58906.56;5014382;28;50225;-52
2022/11/30 05:31:39;;;;;;;;;10.00;10.00;;;;;-146.44;100.00;58906.56;5015054;28;48709;-53
2022/11/30 05:34:05;;;;;;;;;12.00;10.67;;;;;-146.44;100.00;58906.56;5015226;28;45422;-54
2022/11/30 05:36:30;;;;;;;;;9.00;9.00;;;;;-146.44;100.00;58906.56;5015546;28;45434;-53
2022/11/30 05:38:55;;;;;;;;;8.33;7.67;;;;;-146.44;100.00;58906.56;5014372;28;50388;-53
2022/11/30 05:41:21;;;;;;;;;9.00;9.00;;;;;-146.44;100.00;58906.56;5014717;28;46007;-55
2022/11/30 05:43:46;;;;;;;;;7.67;7.67;;;;;-146.44;100.00;58906.56;5014959;28;45446;-53
2022/11/30 05:46:12;;;;;;;;;9.00;9.00;;;;;-146.44;100.00;58906.56;5014019;28;45690;-55
2022/11/30 05:48:37;;;;;;;;;10.00;9.00;;;;;-146.44;100.00;58906.56;5014063;28;45470;-55
2022/11/30 05:51:12;;;;;;;;;8.67;8.67;;;;;-146.44;100.00;58906.56;5013647;28;45907;-52
2022/11/30 05:53:38;;;;;;;;;7.33;7.00;;;;;-146.44;100.00;58906.56;5014007;28;45429;-55
2022/11/30 05:56:05;;;;;;;;;6.67;6.67;;;;;-146.44;100.00;58906.56;5013229;28;45427;-55
2022/11/30 05:58:31;;;;;;;;;8.00;8.00;;;;;-146.44;100.00;58906.56;5015614;28;45476;-53
2022/11/30 06:00:56;;;;;;;;;8.67;8.67;;;;;-146.44;100.00;58906.56;5017970;28;46361;-55
2022/11/30 06:03:22;;;;;;;;;8.33;8.33;;;;;-146.44;100.00;58906.56;5015894;28;45550;-51
2022/11/30 06:05:51;;;;;;;;;8.33;8.33;;;;;-146.44;100.00;58906.56;5023203;28;45589;-53
2022/11/30 06:08:17;;;;;;;;;9.33;8.00;;;;;-146.44;100.00;58906.56;5020847;28;45474;-54
2022/11/30 06:10:42;;;;;;;;;9.67;9.00;;;;;-146.44;100.00;58906.56;5012858;28;46094;-50
2022/11/30 06:13:08;;;;;;;;;13.00;10.33;;;;;-146.44;100.00;58906.56;5003772;28;49396;-53
2022/11/30 06:15:36;;;;;;;;;10.67;7.67;;;;;-146.44;100.00;58906.56;5014506;28;45430;-52
2022/11/30 06:18:02;;;;;;;;;9.33;9.33;;;;;-146.44;100.00;58906.56;5014708;28;45619;-55
2022/11/30 06:20:27;;;;;;;;;10.33;10.33;;;;;-146.44;100.00;58906.56;5014097;28;46271;-55
2022/11/30 06:22:52;;;;;;;;;11.00;10.00;;;;;-146.44;100.00;58906.56;5014262;28;45460;-53
2022/11/30 06:25:18;;;;;;;;;10.33;8.33;;;;;-146.44;100.00;58906.56;5014705;28;45449;-54
2022/11/30 06:27:43;;;;;;;;;9.00;9.00;;;;;-146.44;100.00;58906.56;5014354;28;45594;-53
2022/11/30 06:30:09;;;;;;;;;9.00;9.00;;;;;-146.44;100.00;58906.56;5013903;28;45547;-55
2022/11/30 06:32:34;;;;;;;;;11.33;10.00;;;;;-146.44;100.00;58906.56;5014398;28;45550;-56
2022/11/30 06:35:00;;;;;;;;;10.33;9.00;;;;;-146.44;100.00;58906.56;5013599;28;45362;-54
2022/11/30 06:37:25;;;;;;;;;9.67;9.33;;;;;-146.44;100.00;58906.56;5012909;28;45500;-56
2022/11/30 06:39:50;;;;;;;;;13.33;11.00;;;;;-146.44;100.00;58906.56;5013743;28;45511;-56
2022/11/30 06:42:18;;;;;;;;;9.67;9.67;;;;;-146.44;100.00;58906.56;5013689;28;45523;-51
2022/11/30 06:44:43;;;;;;;;;10.67;10.67;;;;;-146.44;100.00;58906.56;5014102;28;45498;-55
2022/11/30 06:47:09;;;;;;;;;11.67;11.00;;;;;-146.44;100.00;58906.56;5013977;28;45525;-54
2022/11/30 06:49:34;;;;;;;;;11.67;10.67;;;;;-146.44;100.00;58906.56;5017685;28;46094;-52
2022/11/30 06:52:00;;;;;;;;;11.67;10.67;;;;;-146.44;100.00;58906.56;5018901;28;45540;-50
2022/11/30 06:54:25;;;;;;;;;16.33;15.33;;;;;-146.44;100.00;58906.56;5017415;28;45434;-53
2022/11/30 06:56:51;;;;;;;;;12.00;10.67;;;;;-146.44;100.00;58906.56;5014001;28;45672;-52
2022/11/30 06:59:16;;;;;;;;;18.00;12.00;;;;;-146.44;100.00;58906.56;5016883;28;45458;-54
2022/11/30 07:01:41;;;;;;;;;14.00;14.00;;;;;-146.44;100.00;58906.56;5017487;28;45472;-54
2022/11/30 07:04:07;;;;;;;;;15.67;11.00;;;;;-146.44;100.00;58906.56;5017434;28;45450;-51
2022/11/30 07:06:32;;;;;;;;;4.67;4.67;;;;;-146.44;100.00;58906.56;5020022;28;45486;-50
2022/11/30 07:08:57;;;;;;;;;16.33;12.00;;;;;-146.44;100.00;58906.56;5018422;28;45539;-51
2022/11/30 07:11:23;;;;;;;;;14.67;14.67;;;;;-146.44;100.00;58906.56;5017443;28;45520;-52
2022/11/30 07:13:48;;;;;;;;;15.33;15.33;;;;;-146.44;100.00;58906.56;5031932;28;45682;-55
2022/11/30 07:16:14;;;;;;;;;17.67;17.33;;;;;-146.44;100.00;58906.56;5015459;28;45631;-53
2022/11/30 07:18:39;;;;;;;;;14.33;14.33;;;;;-146.44;100.00;58906.56;5029968;28;45504;-54
2022/11/30 07:21:05;;;;;;;;;15.00;14.33;;;;;-146.44;100.00;58906.56;5017123;28;45651;-53
2022/11/30 07:26:15;;;;;;;;;14.00;11.33;;;;;-146.44;100.00;58906.56;5017371;28;45495;-50
2022/11/30 07:28:42;;;;;;;;;13.33;12.67;;;;;-146.44;100.00;58906.56;5022787;28;46036;-56
2022/11/30 07:31:17;;;;;;;;;12.67;12.67;;;;;-146.44;100.00;58906.56;5013404;28;45723;-51
2022/11/30 07:33:43;;;;;;;;;16.33;16.33;;;;;-146.44;100.00;58906.56;5012600;28;45454;-57
2022/11/30 07:36:09;;;;;;;;;16.33;14.67;;;;;-146.44;100.00;58906.56;5017117;28;45426;-54
2022/11/30 07:38:34;;;;;;;;;15.67;14.67;;;;;-146.44;100.00;58906.56;5016722;28;45540;-58
2022/11/30 07:40:59;;;;;;;;;14.33;12.67;;;;;-146.44;100.00;58906.56;5017373;28;46489;-59
2022/11/30 07:43:26;;;;;;;;;12.33;11.67;;;;;-146.44;100.00;58906.56;5019892;28;45482;-51
2022/11/30 07:45:52;;;;;;;;;24.00;17.00;;;;;-146.44;100.00;58906.56;5021418;28;45481;-55
2022/11/30 07:48:18;;;;;;;;;14.00;11.00;;;;;-146.44;100.00;58906.56;5015581;28;46364;-54
2022/11/30 07:50:43;;;;;;;;;15.67;13.67;;;;;-146.44;100.00;58906.56;5015030;28;45508;-51
2022/11/30 07:53:08;;;;;;;;;24.33;20.67;;;;;-146.44;100.00;58906.56;5014822;28;47872;-56
2022/11/30 07:55:34;;;;;;;;;19.00;19.00;;;;;-146.44;100.00;58906.56;5016278;28;45461;-56
2022/11/30 07:57:59;;;;;;;;;20.00;19.33;;;;;-146.44;100.00;58906.56;5015859;28;48612;-51
2022/11/30 08:00:24;;;;;;;;;18.33;17.00;;;;;-146.44;100.00;58906.56;5016170;28;45468;-56
2022/11/30 08:02:50;;;;;;;;;18.33;18.33;;;;;-146.44;100.00;58906.56;5016299;28;45978;-51
2022/11/30 08:05:16;;;;;;;;;24.00;21.00;;;;;-146.44;100.00;58906.56;5015931;28;45617;-53
2022/11/30 08:07:41;;;;;;;;;18.00;18.00;;;;;-146.44;100.00;58906.56;5015746;28;45463;-53
2022/11/30 08:10:07;;;;;;;;;20.00;16.00;;;;;-146.44;100.00;58906.56;5015868;28;45621;-51
2022/11/30 08:12:33;;;;;;;;;18.33;16.33;;;;;-146.44;100.00;58906.56;5015812;28;45544;-55
2022/11/30 08:14:58;;;;;;;;;18.67;18.33;;;;;-146.44;100.00;58906.56;5015902;28;45490;-53
2022/11/30 08:17:23;;;;;;;;;16.67;14.67;;;;;-146.44;100.00;58906.56;5015428;28;50236;-52
2022/11/30 08:19:48;;;;;;;;;14.33;14.00;;;;;-146.44;100.00;58906.56;5015811;28;45387;-53
2022/11/30 08:22:14;;;;;;;;;16.00;16.00;;;;;-146.44;100.00;58906.56;5015588;28;45403;-54
2022/11/30 08:24:39;;;;;;;;;20.33;18.33;;;;;-146.44;100.00;58906.56;5016225;28;45514;-54
2022/11/30 08:27:04;;;;;;;;;18.00;17.33;;;;;-146.44;100.00;58906.56;5015510;28;48978;-52
2022/11/30 08:29:30;;;;;;;;;19.67;16.67;;;;;-146.44;100.00;58906.56;5015344;28;47428;-52
2022/11/30 08:31:55;;;;;;;;;18.00;16.67;;;;;-146.44;100.00;58906.56;5015425;28;48724;-54
2022/11/30 08:34:20;;;;;;;;;22.00;18.00;;;;;-146.44;100.00;58906.56;5015579;28;45497;-54
2022/11/30 08:36:46;;;;;;;;;17.00;15.67;;;;;-146.44;100.00;58906.56;5015462;28;45526;-53
2022/11/30 08:39:12;;;;;;;;;20.33;17.33;;;;;-146.44;100.00;58906.56;5014949;28;45512;-53
2022/11/30 08:41:38;;;;;;;;;16.33;16.33;;;;;-146.44;100.00;58906.56;5015626;28;45510;-51
2022/11/30 08:44:04;;;;;;;;;16.33;15.33;;;;;-146.44;100.00;58906.56;5015463;28;45518;-55
2022/11/30 08:46:30;;;;;;;;;24.67;19.33;;;;;-146.44;100.00;58906.56;5014669;28;47207;-56
2022/11/30 08:48:56;;;;;;;;;17.00;17.00;;;;;-146.44;100.00;58906.56;5013787;28;45496;-54
2022/11/30 08:51:21;;;;;;;;;21.33;18.67;;;;;-146.44;100.00;58906.56;5015070;28;45503;-56
2022/11/30 08:53:48;;;;;;;;;21.00;21.00;;;;;-146.44;100.00;58906.56;5014934;28;45572;-51
2022/11/30 08:56:19;;;;;;;;;19.00;18.00;;;;;-146.44;100.00;58906.56;5014805;28;46021;-53
2022/11/30 08:58:46;;;;;;;;;17.67;15.00;;;;;-146.44;100.00;58906.56;5013558;28;45463;-54
2022/11/30 09:01:14;;;;;;;;;16.00;15.67;;;;;-146.44;100.00;58906.56;5014922;28;45506;-51
2022/11/30 09:03:41;;;;;;;;;20.67;19.00;;;;;-146.44;100.00;58906.56;5015187;28;45451;-50
2022/11/30 09:06:09;;;;;;;;;16.33;14.33;;;;;-146.44;100.00;58906.56;5014771;28;45509;-53
2022/11/30 09:08:35;;;;;;;;;25.67;22.33;;;;;-146.44;100.00;58906.56;5014613;28;45486;-52
2022/11/30 09:11:20;;;;;;;;;22.67;20.33;;;;;-146.44;100.00;58906.56;5014865;28;45545;-51
2022/11/30 09:13:47;;;;;;;;;23.33;20.33;;;;;-146.44;100.00;58906.56;5014849;28;45501;-53
2022/11/30 09:16:14;;;;;;;;;22.33;17.67;;;;;-146.44;100.00;58906.56;5014816;28;46328;-53
2022/11/30 09:18:40;;;;;;;;;31.75;25.50;;;;;-146.44;100.00;58906.56;5014770;28;45504;-53
2022/11/30 09:21:12;;;;;;;;;33.75;31.75;;;;;-146.44;100.00;58906.56;5014052;28;45598;-54
2022/11/30 09:23:38;;;;;;;;;25.00;22.67;;;;;-146.44;100.00;58906.56;5014619;28;45503;-52
2022/11/30 09:26:10;;;;;;;;;19.25;18.25;;;;;-146.44;100.00;58906.56;5014414;28;46201;-55
2022/11/30 09:28:36;;;;;;;;;29.33;23.67;;;;;-146.44;100.00;58906.56;5014386;28;45560;-51
2022/11/30 09:31:09;;;;;;;;;23.00;21.33;;;;;-146.44;100.00;58906.56;5014281;28;45504;-53
2022/11/30 09:33:34;;;;;;;;;22.00;21.33;;;;;-146.44;100.00;58906.56;5014740;28;45601;-52
2022/11/30 09:36:06;;;;;;;;;20.67;19.33;;;;;-146.44;100.00;58906.56;5014364;28;45957;-50
2022/11/30 09:38:31;;;;;;;;;22.67;20.67;;;;;-146.44;100.00;58906.56;5014607;28;45563;-51
2022/11/30 09:40:59;;;;;;;;;20.33;20.33;;;;;-146.44;100.00;58906.56;5014267;28;46078;-54
2022/11/30 09:44:00;;;;;;;;;30.33;27.00;;;;;-146.44;100.00;58906.56;5014836;28;45358;-55
2022/11/30 09:46:49;;;;;;;;;23.33;20.33;;;;;-146.44;100.00;58906.56;5014053;28;45489;-52
2022/11/30 09:49:22;;;;;;;;;22.33;19.33;;;;;-146.44;100.00;58906.56;5013910;28;45456;-54
2022/11/30 09:51:50;;;;;;;;;24.33;23.00;;;;;-146.44;100.00;58906.56;5014472;28;45557;-55
2022/11/30 09:54:35;;;;;;;;;21.00;19.67;;;;;-146.44;100.00;58906.56;5014176;28;45480;-51
2022/11/30 09:57:26;;;;;;;;;18.67;17.33;;;;;-146.44;100.00;58906.56;5013935;28;45439;-53
2022/11/30 09:59:56;;;;;;;;;22.33;22.33;;;;;-146.44;100.00;58906.56;5014101;28;45406;-53
2022/11/30 10:02:28;;;;;;;;;20.67;19.33;;;;;-146.44;100.00;58906.56;5014114;28;45507;-55
2022/11/30 10:04:53;;;;;;;;;25.67;22.00;;;;;-146.44;100.00;58906.56;5013875;28;45395;-50
2022/11/30 10:07:24;;;;;;;;;20.00;19.33;;;;;-146.44;100.00;58906.56;5013859;28;45468;-52
2022/11/30 10:09:56;;;;;;;;;27.50;23.25;;;;;-146.44;100.00;58906.56;5014046;28;45475;-50
2022/11/30 10:12:32;;;;;;;;;27.50;24.25;;;;;-146.44;100.00;58906.56;5013848;28;45538;-52
2022/11/30 10:15:16;;;;;;;;;27.75;24.50;;;;;-146.44;100.00;58906.56;5013953;28;45626;-53
2022/11/30 10:18:07;;;;;;;;;25.50;24.25;;;;;-146.44;100.00;58906.56;5013438;28;45462;-52
2022/11/30 10:20:44;;;;;;;;;28.00;26.00;;;;;-146.44;100.00;58906.56;5013450;28;45503;-53
2022/11/30 10:23:12;;;;;;;;;29.67;26.33;;;;;-146.44;100.00;58906.56;5013660;28;45391;-53
2022/11/30 10:25:56;;;;;;;;;29.75;24.75;;;;;-146.44;100.00;58906.56;5013779;28;45434;-52
2022/11/30 10:28:53;;;;;;;;;28.00;23.67;;;;;-146.44;100.00;58906.56;5013400;28;47187;-54
2022/11/30 10:31:27;;;;;;;;;26.67;24.00;;;;;-146.44;100.00;58906.56;4999879;28;45440;-55
2022/11/30 10:33:56;;;;;;;;;21.67;21.67;;;;;-146.44;100.00;58906.56;5012988;28;45479;-53
2022/11/30 10:36:42;;;;;;;;;28.25;27.50;;;;;-146.44;100.00;58906.56;5013512;28;45722;-52
2022/11/30 10:39:30;;;;;;;;;30.25;26.50;;;;;-146.44;100.00;58906.56;5013635;28;45588;-53
2022/11/30 10:42:04;;;;;;;;;25.00;24.25;;;;;-146.44;100.00;58906.56;5013575;28;45549;-53
2022/11/30 10:44:38;;;;;;;;;26.00;24.25;;;;;-146.44;100.00;58906.56;5013445;28;45403;-54
2022/11/30 10:47:19;;;;;;;;;23.33;20.67;;;;;-146.44;100.00;58906.56;5012406;28;45587;-54
2022/11/30 10:49:48;;;;;;;;;25.00;22.50;;;;;-146.44;100.00;58906.56;5013270;28;45510;-55
2022/11/30 10:52:25;;;;;;;;;27.25;24.00;;;;;-146.44;100.00;58906.56;5013412;28;45583;-55
2022/11/30 10:54:54;;;;;;;;;28.25;25.25;;;;;-146.44;100.00;58906.56;5013351;28;45424;-53
2022/11/30 10:57:21;;;;;;;;;27.00;24.33;;;;;-146.44;100.00;58906.56;5013209;28;45510;-53
2022/11/30 10:59:50;;;;;;;;;23.75;20.75;;;;;-146.44;100.00;58906.56;5012984;28;46495;-55
2022/11/30 11:02:40;;;;;;;;;23.25;23.25;;;;;-146.44;100.00;58906.56;5013409;28;45397;-51
2022/11/30 11:05:27;;;;;;;;;27.33;23.67;;;;;-146.44;100.00;58906.56;5028197;28;45473;-54